createdAt,value
2022-08-21T00:00:15.539Z,79.55
2022-08-21T00:01:15.576Z,79.65
2022-08-21T00:02:15.561Z,79.41
2022-08-21T00:03:15.508Z,79.35
2022-08-21T00:04:20.828Z,79.35
2022-08-21T00:05:16.486Z,79.46
2022-08-21T00:06:15.488Z,79.75
2022-08-21T00:07:15.466Z,79.85
2022-08-21T00:08:15.455Z,79.61
2022-08-21T00:09:15.456Z,79.46
2022-08-21T00:10:15.436Z,80.05
2022-08-21T00:11:15.436Z,79.35
2022-08-21T00:12:15.413Z,79.35
2022-08-21T00:13:18.797Z,79.96
2022-08-21T00:14:15.393Z,79.96
2022-08-21T00:15:15.383Z,79.65
2022-08-21T00:16:15.379Z,79.46
2022-08-21T00:17:15.362Z,79.96
2022-08-21T00:18:15.347Z,80.05
2022-08-21T00:19:15.341Z,79.55
2022-08-21T00:20:15.336Z,79.75
2022-08-21T00:21:15.320Z,79.46
2022-08-21T00:22:15.305Z,80.15
2022-08-21T00:23:15.299Z,79.85
2022-08-21T00:24:15.285Z,80.26
2022-08-21T00:25:15.286Z,80.05
2022-08-21T00:26:15.263Z,80.05
2022-08-21T00:27:15.254Z,79.96
2022-08-21T00:28:15.244Z,80.05
2022-08-21T00:29:15.233Z,79.85
2022-08-21T00:30:17.704Z,79.85
2022-08-21T00:31:16.210Z,80.15
2022-08-21T00:32:15.202Z,80.15
2022-08-21T00:33:15.191Z,80.15
2022-08-21T00:34:15.191Z,79.89
2022-08-21T00:35:15.190Z,80.09
2022-08-21T00:36:15.159Z,80.09
2022-08-21T00:37:15.150Z,80.19
2022-08-21T00:38:15.135Z,80.09
2022-08-21T00:39:15.128Z,80.19
2022-08-21T00:40:15.183Z,80.09
2022-08-21T00:41:37.220Z,80.29
2022-08-21T00:42:16.091Z,79.79
2022-08-21T00:43:15.104Z,79.79
2022-08-21T00:44:15.072Z,79.99
2022-08-21T00:45:15.081Z,79.99
2022-08-21T00:46:15.051Z,79.99
2022-08-21T00:47:15.041Z,80.09
2022-08-21T00:48:15.061Z,80.09
2022-08-21T00:49:15.027Z,79.49
2022-08-21T00:50:15.062Z,79.39
2022-08-21T00:51:16.001Z,79.59
2022-08-21T00:52:14.988Z,79.49
2022-08-21T00:53:14.976Z,79.39
2022-08-21T00:54:18.810Z,79.19
2022-08-21T00:55:14.966Z,79.09
2022-08-21T00:56:14.944Z,79.39
2022-08-21T00:57:14.933Z,79.19
2022-08-21T00:58:14.921Z,78.99
2022-08-21T00:59:14.912Z,79.39
2022-08-21T01:00:14.926Z,79.29
2022-08-21T01:01:14.984Z,79.69
2022-08-21T01:02:14.879Z,79.59
2022-08-21T01:03:14.869Z,79.63
2022-08-21T01:04:14.861Z,79.49
2022-08-21T01:05:14.857Z,79.69
2022-08-21T01:06:14.834Z,79.59
2022-08-21T01:07:14.830Z,79.53
2022-08-21T01:08:14.813Z,79.89
2022-08-21T01:09:14.820Z,79.79
2022-08-21T01:10:23.738Z,80.09
2022-08-21T01:11:15.782Z,80.33
2022-08-21T01:12:14.772Z,79.89
2022-08-21T01:13:14.766Z,79.93
2022-08-21T01:14:14.750Z,80.13
2022-08-21T01:15:14.749Z,80.09
2022-08-21T01:16:14.726Z,80.13
2022-08-21T01:17:14.717Z,80.13
2022-08-21T01:18:14.708Z,80.33
2022-08-21T01:19:14.697Z,80.33
2022-08-21T01:20:14.698Z,80.73
2022-08-21T01:21:14.676Z,80.53
2022-08-21T01:22:14.661Z,80.63
2022-08-21T01:23:14.651Z,80.73
2022-08-21T01:24:14.645Z,80.93
2022-08-21T01:25:14.644Z,80.53
2022-08-21T01:26:14.620Z,80.83
2022-08-21T01:27:14.609Z,80.93
2022-08-21T01:28:14.594Z,81.03
2022-08-21T01:29:14.586Z,81.23
2022-08-21T01:30:14.582Z,80.93
2022-08-21T01:31:14.564Z,81.23
2022-08-21T01:32:14.552Z,81.33
2022-08-21T01:33:14.544Z,81.23
2022-08-21T01:34:14.529Z,82.07
2022-08-21T01:35:14.533Z,81.57
2022-08-21T01:36:14.509Z,81.67
2022-08-21T01:37:14.499Z,81.63
2022-08-21T01:38:14.486Z,81.47
2022-08-21T01:39:14.477Z,81.23
2022-08-21T01:40:14.577Z,81.27
2022-08-21T01:41:14.455Z,81.57
2022-08-21T01:42:14.442Z,81.47
2022-08-21T01:43:14.435Z,81.37
2022-08-21T01:44:14.437Z,81.57
2022-08-21T01:45:14.423Z,81.23
2022-08-21T01:46:14.398Z,80.83
2022-08-21T01:47:14.420Z,80.83
2022-08-21T01:48:14.378Z,80.77
2022-08-21T01:49:14.368Z,81.43
2022-08-21T01:50:14.369Z,81.23
2022-08-21T01:51:14.348Z,81.27
2022-08-21T01:52:14.338Z,81.27
2022-08-21T01:53:14.324Z,80.87
2022-08-21T01:54:14.311Z,81.07
2022-08-21T01:55:14.302Z,80.77
2022-08-21T01:56:14.299Z,80.67
2022-08-21T01:57:14.280Z,80.36
2022-08-21T01:58:14.266Z,79.97
2022-08-21T01:59:14.259Z,79.86
2022-08-21T02:00:14.246Z,79.67
2022-08-21T02:01:14.315Z,79.77
2022-08-21T02:02:14.226Z,79.57
2022-08-21T02:03:14.215Z,79.57
2022-08-21T02:04:15.206Z,79.17
2022-08-21T02:05:14.193Z,79.06
2022-08-21T02:06:14.193Z,79.27
2022-08-21T02:07:14.172Z,78.67
2022-08-21T02:08:14.158Z,78.67
2022-08-21T02:09:14.151Z,78.47
2022-08-21T02:10:14.135Z,78.41
2022-08-21T02:11:14.142Z,78.67
2022-08-21T02:12:14.115Z,78.70
2022-08-21T02:13:14.106Z,77.97
2022-08-21T02:14:14.093Z,78.00
2022-08-21T02:15:14.082Z,77.40
2022-08-21T02:16:19.492Z,77.50
2022-08-21T02:17:15.062Z,77.70
2022-08-21T02:18:14.049Z,77.50
2022-08-21T02:19:14.042Z,77.30
2022-08-21T02:20:14.032Z,77.20
2022-08-21T02:21:14.089Z,77.50
2022-08-21T02:22:14.006Z,77.50
2022-08-21T02:23:13.994Z,77.30
2022-08-21T02:24:13.986Z,77.10
2022-08-21T02:25:13.971Z,77.60
2022-08-21T02:26:13.978Z,76.90
2022-08-21T02:27:13.951Z,77.40
2022-08-21T02:28:13.940Z,77.30
2022-08-21T02:29:13.930Z,77.10
2022-08-21T02:30:13.921Z,76.80
2022-08-21T02:31:13.915Z,76.70
2022-08-21T02:32:15.793Z,76.74
2022-08-21T02:33:13.885Z,76.70
2022-08-21T02:34:13.877Z,77.14
2022-08-21T02:35:13.875Z,77.04
2022-08-21T02:36:13.855Z,77.14
2022-08-21T02:37:13.840Z,76.50
2022-08-21T02:38:13.832Z,76.64
2022-08-21T02:39:13.817Z,76.43
2022-08-21T02:40:13.891Z,76.43
2022-08-21T02:41:13.797Z,75.74
2022-08-21T02:42:13.789Z,76.20
2022-08-21T02:43:13.774Z,75.74
2022-08-21T02:44:13.765Z,75.84
2022-08-21T02:45:13.762Z,76.20
2022-08-21T02:46:13.750Z,75.40
2022-08-21T02:47:13.731Z,75.84
2022-08-21T02:48:13.722Z,75.74
2022-08-21T02:49:13.721Z,75.43
2022-08-21T02:50:13.717Z,75.54
2022-08-21T02:51:13.692Z,75.74
2022-08-21T02:52:13.680Z,75.74
2022-08-21T02:53:13.665Z,75.93
2022-08-21T02:54:13.656Z,75.63
2022-08-21T02:55:13.655Z,75.54
2022-08-21T02:56:13.638Z,75.93
2022-08-21T02:57:13.622Z,75.74
2022-08-21T02:58:13.632Z,76.34
2022-08-21T02:59:13.599Z,76.64
2022-08-21T03:00:13.599Z,76.84
2022-08-21T03:01:13.603Z,76.34
2022-08-21T03:02:13.572Z,76.54
2022-08-21T03:03:13.559Z,76.64
2022-08-21T03:04:13.548Z,77.24
2022-08-21T03:05:13.543Z,77.14
2022-08-21T03:06:13.526Z,77.04
2022-08-21T03:07:13.513Z,77.04
2022-08-21T03:08:13.503Z,76.94
2022-08-21T03:09:13.491Z,77.08
2022-08-21T03:10:13.492Z,76.87
2022-08-21T03:11:13.468Z,77.08
2022-08-21T03:12:13.459Z,76.87
2022-08-21T03:13:13.446Z,76.87
2022-08-21T03:14:13.438Z,76.84
2022-08-21T03:15:13.439Z,76.98
2022-08-21T03:16:13.421Z,76.87
2022-08-21T03:17:13.404Z,76.98
2022-08-21T03:18:13.392Z,77.08
2022-08-21T03:19:13.382Z,77.17
2022-08-21T03:20:13.383Z,77.08
2022-08-21T03:21:13.359Z,76.87
2022-08-21T03:22:13.362Z,76.67
2022-08-21T03:23:14.420Z,76.37
2022-08-21T03:24:14.333Z,76.78
2022-08-21T03:25:13.316Z,76.47
2022-08-21T03:26:13.318Z,76.47
2022-08-21T03:27:13.296Z,76.74
2022-08-21T03:28:13.928Z,76.78
2022-08-21T03:29:13.279Z,76.87
2022-08-21T03:30:13.262Z,76.78
2022-08-21T03:31:13.263Z,76.67
2022-08-21T03:32:13.240Z,76.67
2022-08-21T03:33:15.425Z,76.17
2022-08-21T03:34:13.221Z,76.07
2022-08-21T03:35:13.208Z,76.07
2022-08-21T03:36:13.211Z,75.87
2022-08-21T03:37:13.187Z,76.37
2022-08-21T03:38:13.175Z,76.07
2022-08-21T03:39:13.162Z,76.47
2022-08-21T03:40:13.220Z,76.17
2022-08-21T03:41:13.170Z,76.01
2022-08-21T03:42:13.131Z,75.60
2022-08-21T03:43:13.119Z,76.31
2022-08-21T03:44:13.113Z,76.01
2022-08-21T03:45:13.098Z,75.81
2022-08-21T03:46:13.105Z,75.60
2022-08-21T03:47:13.076Z,75.87
2022-08-21T03:48:13.339Z,76.21
2022-08-21T03:49:13.061Z,76.31
2022-08-21T03:50:13.045Z,75.71
2022-08-21T03:51:13.052Z,76.11
2022-08-21T03:52:13.022Z,76.21
2022-08-21T03:53:16.774Z,76.01
2022-08-21T03:54:13.004Z,76.41
2022-08-21T03:55:12.988Z,75.71
2022-08-21T03:56:12.990Z,76.41
2022-08-21T03:57:12.968Z,75.91
2022-08-21T03:58:15.984Z,76.01
2022-08-21T03:59:12.943Z,75.91
2022-08-21T04:00:12.934Z,76.11
2022-08-21T04:01:12.936Z,76.41
2022-08-21T04:02:12.914Z,75.51
2022-08-21T04:03:12.900Z,75.51
2022-08-21T04:04:12.891Z,75.60
2022-08-21T04:05:12.879Z,75.81
2022-08-21T04:06:12.880Z,75.60
2022-08-21T04:07:12.855Z,75.71
2022-08-21T04:08:12.847Z,76.01
2022-08-21T04:09:12.834Z,75.41
2022-08-21T04:10:12.825Z,75.81
2022-08-21T04:11:12.826Z,75.60
2022-08-21T04:12:12.802Z,75.41
2022-08-21T04:13:12.794Z,75.64
2022-08-21T04:14:12.779Z,75.51
2022-08-21T04:15:12.772Z,75.64
2022-08-21T04:16:12.772Z,75.64
2022-08-21T04:17:12.746Z,75.64
2022-08-21T04:18:12.737Z,75.81
2022-08-21T04:19:12.725Z,75.84
2022-08-21T04:20:12.715Z,75.45
2022-08-21T04:21:13.473Z,75.31
2022-08-21T04:22:12.693Z,75.45
2022-08-21T04:23:12.682Z,75.45
2022-08-21T04:24:13.670Z,75.54
2022-08-21T04:25:12.658Z,75.14
2022-08-21T04:26:12.660Z,75.14
2022-08-21T04:27:12.637Z,75.21
2022-08-21T04:28:12.628Z,75.21
2022-08-21T04:29:12.614Z,74.74
2022-08-21T04:30:12.615Z,75.51
2022-08-21T04:31:12.609Z,74.51
2022-08-21T04:32:12.583Z,74.80
2022-08-21T04:33:12.571Z,74.80
2022-08-21T04:34:12.566Z,74.90
2022-08-21T04:35:12.550Z,74.90
2022-08-21T04:36:12.550Z,74.84
2022-08-21T04:37:12.528Z,75.10
2022-08-21T04:38:12.518Z,74.90
2022-08-21T04:39:12.508Z,74.74
2022-08-21T04:40:12.590Z,74.30
2022-08-21T04:41:12.497Z,74.90
2022-08-21T04:42:12.486Z,74.44
2022-08-21T04:43:12.463Z,74.54
2022-08-21T04:44:12.453Z,74.40
2022-08-21T04:45:12.462Z,74.74
2022-08-21T04:46:13.488Z,74.54
2022-08-21T04:47:12.421Z,74.40
2022-08-21T04:48:14.263Z,74.10
2022-08-21T04:49:12.401Z,74.20
2022-08-21T04:50:12.387Z,74.10
2022-08-21T04:51:12.390Z,73.80
2022-08-21T04:52:12.365Z,74.10
2022-08-21T04:53:12.353Z,73.90
2022-08-21T04:54:12.356Z,74.20
2022-08-21T04:55:12.330Z,73.74
2022-08-21T04:56:12.329Z,73.90
2022-08-21T04:57:12.309Z,74.01
2022-08-21T04:58:12.302Z,74.04
2022-08-21T04:59:12.287Z,73.90
2022-08-21T05:00:14.220Z,73.70
2022-08-21T05:01:12.348Z,73.80
2022-08-21T05:02:12.257Z,73.94
2022-08-21T05:03:12.242Z,74.04
2022-08-21T05:04:12.233Z,74.10
2022-08-21T05:05:12.226Z,73.80
2022-08-21T05:06:12.223Z,73.60
2022-08-21T05:07:12.202Z,73.50
2022-08-21T05:08:12.191Z,73.70
2022-08-21T05:09:12.183Z,73.70
2022-08-21T05:10:12.529Z,73.50
2022-08-21T05:11:12.171Z,73.50
2022-08-21T05:12:12.149Z,73.50
2022-08-21T05:13:12.135Z,73.70
2022-08-21T05:14:12.126Z,73.80
2022-08-21T05:15:12.966Z,73.70
2022-08-21T05:16:12.115Z,73.90
2022-08-21T05:17:12.093Z,73.70
2022-08-21T05:18:12.082Z,73.70
2022-08-21T05:19:12.069Z,73.50
2022-08-21T05:20:12.060Z,73.40
2022-08-21T05:21:12.059Z,73.40
2022-08-21T05:22:12.038Z,73.70
2022-08-21T05:23:12.024Z,73.50
2022-08-21T05:24:12.016Z,73.60
2022-08-21T05:25:12.014Z,73.40
2022-08-21T05:26:18.213Z,73.50
2022-08-21T05:27:12.981Z,73.70
2022-08-21T05:28:11.975Z,73.40
2022-08-21T05:29:12.335Z,73.40
2022-08-21T05:30:11.963Z,73.30
2022-08-21T05:31:11.939Z,73.40
2022-08-21T05:32:11.928Z,73.40
2022-08-21T05:33:11.915Z,73.30
2022-08-21T05:34:11.907Z,73.30
2022-08-21T05:35:11.906Z,73.36
2022-08-21T05:36:11.883Z,73.40
2022-08-21T05:37:11.871Z,73.10
2022-08-21T05:38:14.856Z,73.27
2022-08-21T05:39:12.848Z,73.20
2022-08-21T05:40:21.264Z,73.10
2022-08-21T05:41:12.920Z,73.16
2022-08-21T05:42:11.819Z,73.16
2022-08-21T05:43:11.806Z,73.36
2022-08-21T05:44:11.797Z,72.86
2022-08-21T05:45:11.823Z,73.16
2022-08-21T05:46:11.778Z,73.27
2022-08-21T05:47:11.762Z,73.07
2022-08-21T05:48:11.754Z,73.20
2022-08-21T05:49:11.740Z,73.07
2022-08-21T05:50:11.745Z,73.16
2022-08-21T05:51:11.718Z,73.16
2022-08-21T05:52:11.712Z,73.07
2022-08-21T05:53:11.708Z,72.86
2022-08-21T05:54:11.689Z,73.07
2022-08-21T05:55:11.684Z,73.07
2022-08-21T05:56:11.668Z,72.97
2022-08-21T05:57:11.652Z,72.97
2022-08-21T05:58:11.644Z,72.86
2022-08-21T05:59:11.631Z,72.77
2022-08-21T06:00:11.632Z,72.86
2022-08-21T06:01:11.671Z,72.66
2022-08-21T06:02:11.602Z,72.77
2022-08-21T06:03:11.587Z,72.97
2022-08-21T06:04:11.578Z,72.56
2022-08-21T06:05:11.577Z,72.66
2022-08-21T06:06:11.558Z,72.56
2022-08-21T06:07:11.544Z,72.66
2022-08-21T06:08:11.534Z,72.77
2022-08-21T06:09:11.525Z,72.56
2022-08-21T06:10:11.522Z,72.77
2022-08-21T06:11:11.499Z,72.77
2022-08-21T06:12:11.490Z,72.66
2022-08-21T06:13:11.483Z,72.66
2022-08-21T06:14:11.472Z,72.27
2022-08-21T06:15:11.483Z,72.23
2022-08-21T06:16:11.447Z,72.27
2022-08-21T06:17:11.435Z,72.47
2022-08-21T06:18:11.427Z,72.03
2022-08-21T06:19:11.422Z,72.27
2022-08-21T06:20:11.416Z,72.03
2022-08-21T06:21:11.391Z,72.13
2022-08-21T06:22:11.382Z,71.73
2022-08-21T06:23:11.369Z,71.63
2022-08-21T06:24:11.358Z,71.63
2022-08-21T06:25:11.356Z,71.63
2022-08-21T06:26:11.338Z,71.83
2022-08-21T06:27:11.326Z,71.83
2022-08-21T06:28:11.317Z,71.53
2022-08-21T06:29:11.304Z,71.33
2022-08-21T06:30:11.306Z,71.63
2022-08-21T06:31:11.282Z,71.63
2022-08-21T06:32:11.273Z,71.33
2022-08-21T06:33:11.273Z,71.53
2022-08-21T06:34:11.247Z,71.12
2022-08-21T06:35:11.255Z,71.12
2022-08-21T06:36:11.228Z,71.33
2022-08-21T06:37:11.218Z,71.33
2022-08-21T06:38:11.207Z,71.30
2022-08-21T06:39:25.007Z,71.30
2022-08-21T06:40:12.766Z,71.30
2022-08-21T06:41:11.174Z,71.39
2022-08-21T06:42:11.161Z,71.50
2022-08-21T06:43:11.150Z,70.69
2022-08-21T06:44:11.139Z,70.39
2022-08-21T06:45:11.143Z,71.00
2022-08-21T06:46:11.118Z,70.29
2022-08-21T06:47:11.107Z,70.29
2022-08-21T06:48:14.532Z,70.89
2022-08-21T06:49:21.364Z,70.86
2022-08-21T06:50:12.087Z,70.36
2022-08-21T06:51:11.066Z,70.56
2022-08-21T06:52:11.055Z,70.16
2022-08-21T06:53:11.044Z,70.43
2022-08-21T06:54:11.029Z,69.93
2022-08-21T06:55:11.037Z,70.53
2022-08-21T06:56:11.013Z,69.82
2022-08-21T06:57:11.003Z,70.03
2022-08-21T06:58:10.987Z,70.09
2022-08-21T06:59:10.980Z,69.29
2022-08-21T07:00:11.013Z,68.99
2022-08-21T07:01:11.785Z,69.49
2022-08-21T07:02:10.948Z,68.76
2022-08-21T07:03:10.937Z,68.76
2022-08-21T07:04:10.924Z,68.93
2022-08-21T07:05:17.619Z,68.52
2022-08-21T07:06:11.901Z,68.23
2022-08-21T07:07:10.898Z,67.53
2022-08-21T07:08:10.882Z,66.89
2022-08-21T07:09:10.872Z,66.89
2022-08-21T07:10:15.849Z,67.10
2022-08-21T07:11:11.863Z,66.80
2022-08-21T07:12:10.839Z,66.66
2022-08-21T07:13:10.829Z,66.47
2022-08-21T07:14:10.814Z,66.03
2022-08-21T07:15:11.816Z,65.34
2022-08-21T07:16:10.793Z,65.73
2022-08-21T07:17:10.785Z,64.61
2022-08-21T07:18:10.771Z,64.58
2022-08-21T07:19:10.776Z,64.07
2022-08-21T07:20:10.759Z,63.68
2022-08-21T07:21:10.741Z,63.28
2022-08-21T07:22:10.728Z,63.38
2022-08-21T07:23:10.717Z,63.18
2022-08-21T07:24:10.707Z,63.05
2022-08-21T07:25:10.706Z,62.75
2022-08-21T07:26:10.682Z,62.75
2022-08-21T07:27:10.673Z,62.45
2022-08-21T07:28:10.658Z,62.55
2022-08-21T07:29:10.648Z,61.96
2022-08-21T07:30:10.651Z,62.15
2022-08-21T07:31:10.630Z,62.13
2022-08-21T07:32:10.615Z,61.36
2022-08-21T07:33:10.606Z,62.05
2022-08-21T07:34:10.594Z,62.26
2022-08-21T07:35:10.594Z,61.66
2022-08-21T07:36:10.574Z,61.33
2022-08-21T07:37:10.563Z,61.03
2022-08-21T07:38:10.551Z,61.03
2022-08-21T07:39:10.542Z,61.20
2022-08-21T07:40:10.665Z,60.27
2022-08-21T07:41:10.520Z,59.88
2022-08-21T07:42:10.507Z,60.08
2022-08-21T07:43:10.499Z,59.35
2022-08-21T07:44:10.485Z,59.45
2022-08-21T07:45:10.489Z,57.86
2022-08-21T07:46:10.463Z,57.96
2022-08-21T07:47:10.455Z,57.66
2022-08-21T07:48:10.442Z,57.96
2022-08-21T07:49:10.439Z,57.46
2022-08-21T07:50:10.418Z,57.69
2022-08-21T07:51:10.415Z,57.96
2022-08-21T07:52:10.398Z,58.16
2022-08-21T07:53:10.389Z,57.96
2022-08-21T07:54:10.384Z,58.06
2022-08-21T07:55:11.366Z,57.46
2022-08-21T07:56:10.355Z,57.17
2022-08-21T07:57:10.347Z,57.14
2022-08-21T07:58:10.332Z,57.04
2022-08-21T07:59:10.333Z,56.74
2022-08-21T08:00:10.316Z,55.35
2022-08-21T08:01:10.349Z,55.32
2022-08-21T08:02:10.289Z,55.44
2022-08-21T08:03:10.539Z,54.82
2022-08-21T08:04:10.280Z,54.95
2022-08-21T08:05:10.264Z,55.25
2022-08-21T08:06:10.248Z,55.52
2022-08-21T08:07:10.237Z,55.32
2022-08-21T08:08:10.225Z,55.02
2022-08-21T08:09:10.258Z,55.12
2022-08-21T08:10:10.204Z,55.00
2022-08-21T08:11:10.194Z,54.80
2022-08-21T08:12:10.183Z,54.40
2022-08-21T08:13:10.690Z,54.60
2022-08-21T08:14:10.169Z,54.28
2022-08-21T08:15:10.153Z,54.08
2022-08-21T08:16:10.142Z,53.96
2022-08-21T08:17:10.131Z,54.05
2022-08-21T08:18:10.117Z,53.03
2022-08-21T08:19:10.194Z,51.84
2022-08-21T08:20:10.099Z,52.12
2022-08-21T08:21:10.091Z,52.02
2022-08-21T08:22:10.089Z,51.52
2022-08-21T08:23:10.066Z,50.81
2022-08-21T08:24:18.322Z,51.20
2022-08-21T08:25:11.044Z,50.68
2022-08-21T08:26:10.038Z,50.90
2022-08-21T08:27:10.025Z,51.00
2022-08-21T08:28:17.416Z,49.99
2022-08-21T08:29:11.014Z,50.41
2022-08-21T08:30:09.996Z,49.62
2022-08-21T08:31:09.983Z,49.32
2022-08-21T08:32:09.970Z,50.21
2022-08-21T08:33:09.972Z,49.00
2022-08-21T08:34:09.950Z,49.59
2022-08-21T08:35:10.936Z,49.52
2022-08-21T08:36:09.926Z,49.12
2022-08-21T08:37:09.915Z,49.91
2022-08-21T08:38:09.918Z,49.40
2022-08-21T08:39:10.917Z,48.92
2022-08-21T08:40:09.967Z,48.72
2022-08-21T08:41:09.876Z,48.55
2022-08-21T08:42:32.693Z,48.94
2022-08-21T08:43:10.870Z,48.85
2022-08-21T08:44:09.842Z,48.38
2022-08-21T08:45:09.834Z,48.47
2022-08-21T08:46:09.819Z,48.99
2022-08-21T08:47:09.813Z,49.29
2022-08-21T08:48:14.126Z,49.29
2022-08-21T08:49:09.794Z,49.71
2022-08-21T08:50:09.781Z,50.01
2022-08-21T08:51:09.766Z,50.60
2022-08-21T08:52:09.754Z,51.00
2022-08-21T08:53:09.756Z,50.13
2022-08-21T08:54:09.735Z,50.83
2022-08-21T08:55:09.735Z,50.83
2022-08-21T08:56:09.712Z,50.85
2022-08-21T08:57:09.703Z,51.25
2022-08-21T08:58:09.703Z,50.85
2022-08-21T08:59:09.681Z,51.35
2022-08-21T09:00:09.671Z,50.56
2022-08-21T09:01:09.717Z,50.58
2022-08-21T09:02:09.649Z,50.58
2022-08-21T09:03:09.655Z,51.17
2022-08-21T09:04:09.626Z,51.37
2022-08-21T09:05:09.618Z,51.10
2022-08-21T09:06:09.605Z,51.57
2022-08-21T09:07:09.598Z,51.97
2022-08-21T09:08:09.597Z,51.77
2022-08-21T09:09:09.575Z,52.34
2022-08-21T09:10:09.594Z,52.37
2022-08-21T09:11:09.553Z,52.07
2022-08-21T09:12:09.542Z,52.26
2022-08-21T09:13:09.542Z,52.49
2022-08-21T09:14:09.570Z,52.37
2022-08-21T09:15:09.510Z,51.89
2022-08-21T09:16:09.497Z,52.69
2022-08-21T09:17:09.495Z,52.42
2022-08-21T09:18:09.488Z,52.81
2022-08-21T09:19:09.468Z,52.81
2022-08-21T09:20:09.463Z,52.49
2022-08-21T09:21:09.445Z,52.79
2022-08-21T09:22:09.436Z,52.69
2022-08-21T09:23:09.434Z,52.49
2022-08-21T09:24:09.415Z,52.69
2022-08-21T09:25:09.402Z,53.28
2022-08-21T09:26:09.390Z,52.19
2022-08-21T09:27:09.407Z,52.29
2022-08-21T09:28:09.380Z,52.19
2022-08-21T09:29:09.358Z,52.49
2022-08-21T09:30:09.346Z,52.00
2022-08-21T09:31:09.345Z,52.00
2022-08-21T09:32:09.325Z,52.19
2022-08-21T09:33:09.331Z,52.00
2022-08-21T09:34:09.330Z,52.09
2022-08-21T09:35:09.296Z,52.29
2022-08-21T09:36:09.286Z,52.79
2022-08-21T09:37:09.271Z,53.39
2022-08-21T09:38:09.267Z,52.49
2022-08-21T09:39:09.256Z,52.69
2022-08-21T09:40:09.313Z,52.79
2022-08-21T09:41:09.234Z,52.69
2022-08-21T09:42:09.217Z,52.69
2022-08-21T09:43:09.244Z,52.59
2022-08-21T09:44:09.195Z,52.69
2022-08-21T09:45:09.185Z,52.76
2022-08-21T09:46:09.172Z,52.69
2022-08-21T09:47:09.167Z,53.16
2022-08-21T09:48:09.163Z,52.86
2022-08-21T09:49:14.970Z,52.26
2022-08-21T09:50:10.127Z,51.77
2022-08-21T09:51:09.121Z,51.77
2022-08-21T09:52:09.121Z,51.15
2022-08-21T09:53:09.114Z,51.05
2022-08-21T09:54:09.086Z,51.15
2022-08-21T09:55:09.078Z,51.45
2022-08-21T09:56:09.067Z,50.95
2022-08-21T09:57:09.054Z,51.15
2022-08-21T09:58:09.054Z,50.73
2022-08-21T09:59:09.035Z,50.83
2022-08-21T10:00:09.023Z,50.03
2022-08-21T10:01:09.108Z,49.63
2022-08-21T10:02:08.999Z,49.84
2022-08-21T10:03:09.001Z,49.63
2022-08-21T10:04:08.977Z,49.46
2022-08-21T10:05:08.969Z,50.63
2022-08-21T10:06:09.410Z,51.54
2022-08-21T10:07:08.951Z,51.35
2022-08-21T10:08:08.945Z,51.32
2022-08-21T10:09:11.302Z,51.12
2022-08-21T10:10:08.912Z,51.00
2022-08-21T10:11:08.904Z,49.71
2022-08-21T10:12:11.066Z,49.09
2022-08-21T10:13:08.892Z,49.69
2022-08-21T10:14:08.869Z,48.99
2022-08-21T10:15:08.937Z,49.39
2022-08-21T10:16:08.896Z,49.88
2022-08-21T10:17:08.839Z,48.99
2022-08-21T10:18:08.837Z,49.29
2022-08-21T10:19:08.821Z,49.69
2022-08-21T10:20:08.812Z,48.99
2022-08-21T10:21:11.851Z,49.66
2022-08-21T10:22:08.796Z,48.99
2022-08-21T10:23:08.783Z,48.99
2022-08-21T10:24:08.762Z,48.69
2022-08-21T10:25:08.756Z,47.88
2022-08-21T10:26:12.778Z,48.38
2022-08-21T10:27:09.740Z,48.27
2022-08-21T10:28:13.015Z,47.28
2022-08-21T10:29:09.729Z,47.78
2022-08-21T10:30:08.700Z,47.58
2022-08-21T10:31:08.692Z,47.19
2022-08-21T10:32:11.353Z,47.66
2022-08-21T10:33:09.675Z,48.35
2022-08-21T10:34:08.654Z,47.19
2022-08-21T10:35:08.650Z,47.86
2022-08-21T10:36:08.634Z,46.67
2022-08-21T10:37:10.749Z,46.67
2022-08-21T10:38:08.622Z,46.69
2022-08-21T10:39:35.130Z,46.79
2022-08-21T10:40:09.721Z,46.09
2022-08-21T10:41:08.582Z,46.30
2022-08-21T10:42:08.580Z,46.19
2022-08-21T10:43:08.563Z,46.19
2022-08-21T10:44:08.546Z,47.19
2022-08-21T10:45:08.566Z,46.79
2022-08-21T10:46:08.527Z,46.89
2022-08-21T10:47:08.525Z,46.91
2022-08-21T10:48:08.506Z,46.89
2022-08-21T10:49:08.493Z,47.41
2022-08-21T10:50:08.484Z,47.71
2022-08-21T10:51:08.471Z,46.61
2022-08-21T10:52:08.476Z,47.01
2022-08-21T10:53:08.450Z,46.71
2022-08-21T10:54:08.448Z,46.61
2022-08-21T10:55:08.428Z,45.82
2022-08-21T10:56:08.423Z,46.42
2022-08-21T10:57:08.416Z,47.01
2022-08-21T10:58:08.399Z,46.22
2022-08-21T10:59:08.386Z,46.42
2022-08-21T11:00:08.376Z,46.81
2022-08-21T11:01:08.438Z,46.61
2022-08-21T11:02:08.369Z,46.12
2022-08-21T11:03:08.345Z,46.51
2022-08-21T11:04:08.335Z,46.91
2022-08-21T11:05:08.321Z,47.21
2022-08-21T11:06:08.312Z,47.31
2022-08-21T11:07:17.242Z,46.91
2022-08-21T11:08:09.289Z,47.21
2022-08-21T11:09:08.281Z,46.91
2022-08-21T11:10:08.275Z,47.21
2022-08-21T11:11:08.808Z,47.41
2022-08-21T11:12:11.377Z,46.49
2022-08-21T11:13:08.241Z,46.69
2022-08-21T11:14:08.226Z,46.39
2022-08-21T11:15:08.228Z,46.59
2022-08-21T11:16:09.204Z,46.49
2022-08-21T11:17:08.222Z,46.39
2022-08-21T11:18:08.186Z,45.50
2022-08-21T11:19:08.185Z,45.00
2022-08-21T11:20:08.163Z,43.32
2022-08-21T11:21:08.165Z,43.91
2022-08-21T11:22:08.152Z,43.62
2022-08-21T11:23:08.455Z,44.71
2022-08-21T11:24:08.125Z,45.20
2022-08-21T11:25:08.122Z,44.71
2022-08-21T11:26:08.100Z,44.21
2022-08-21T11:27:08.095Z,44.41
2022-08-21T11:28:12.185Z,44.49
2022-08-21T11:29:09.064Z,43.89
2022-08-21T11:30:08.063Z,43.02
2022-08-21T11:31:08.063Z,43.12
2022-08-21T11:32:08.046Z,43.12
2022-08-21T11:33:08.021Z,43.52
2022-08-21T11:34:08.024Z,43.44
2022-08-21T11:35:08.001Z,43.64
2022-08-21T11:36:07.991Z,43.71
2022-08-21T11:37:07.993Z,42.55
2022-08-21T11:38:07.970Z,42.74
2022-08-21T11:39:07.969Z,42.35
2022-08-21T11:40:08.048Z,42.35
2022-08-21T11:41:07.938Z,43.54
2022-08-21T11:42:09.147Z,43.42
2022-08-21T11:43:07.915Z,43.54
2022-08-21T11:44:07.918Z,44.23
2022-08-21T11:45:07.895Z,44.04
2022-08-21T11:46:07.891Z,44.13
2022-08-21T11:47:07.884Z,43.64
2022-08-21T11:48:07.861Z,43.44
2022-08-21T11:49:07.848Z,42.45
2022-08-21T11:50:18.142Z,43.84
2022-08-21T11:51:08.825Z,42.63
2022-08-21T11:52:07.829Z,43.34
2022-08-21T11:53:07.805Z,43.42
2022-08-21T11:54:07.798Z,43.22
2022-08-21T11:55:07.811Z,43.52
2022-08-21T11:56:07.779Z,43.42
2022-08-21T11:57:07.777Z,43.62
2022-08-21T11:58:07.753Z,44.01
2022-08-21T11:59:07.739Z,44.51
2022-08-21T12:00:07.798Z,44.33
2022-08-21T12:01:07.720Z,44.21
2022-08-21T12:02:07.759Z,44.71
2022-08-21T12:03:07.697Z,44.01
2022-08-21T12:04:07.689Z,43.02
2022-08-21T12:05:08.909Z,43.82
2022-08-21T12:06:07.675Z,44.11
2022-08-21T12:07:07.669Z,44.41
2022-08-21T12:08:07.645Z,44.21
2022-08-21T12:09:07.632Z,43.32
2022-08-21T12:10:07.631Z,44.51
2022-08-21T12:11:07.613Z,43.02
2022-08-21T12:12:07.615Z,44.60
2022-08-21T12:13:07.589Z,44.21
2022-08-21T12:14:07.578Z,44.21
2022-08-21T12:15:07.567Z,44.11
2022-08-21T12:16:07.559Z,44.41
2022-08-21T12:17:08.815Z,44.11
2022-08-21T12:18:07.561Z,44.90
2022-08-21T12:19:07.527Z,44.60
2022-08-21T12:20:07.517Z,45.20
2022-08-21T12:21:07.505Z,45.40
2022-08-21T12:22:07.507Z,44.31
2022-08-21T12:23:13.071Z,44.41
2022-08-21T12:24:08.474Z,44.90
2022-08-21T12:25:07.458Z,44.71
2022-08-21T12:26:07.450Z,44.11
2022-08-21T12:27:07.449Z,44.60
2022-08-21T12:28:07.437Z,44.49
2022-08-21T12:29:07.430Z,44.19
2022-08-21T12:30:07.407Z,42.92
2022-08-21T12:31:07.451Z,44.21
2022-08-21T12:32:07.394Z,43.62
2022-08-21T12:33:07.375Z,43.22
2022-08-21T12:34:07.372Z,43.82
2022-08-21T12:35:07.355Z,44.21
2022-08-21T12:36:07.439Z,43.52
2022-08-21T12:37:07.353Z,43.62
2022-08-21T12:38:07.347Z,44.11
2022-08-21T12:39:07.325Z,43.02
2022-08-21T12:40:07.375Z,43.62
2022-08-21T12:41:07.285Z,43.62
2022-08-21T12:42:07.322Z,43.52
2022-08-21T12:43:07.547Z,43.82
2022-08-21T12:44:07.263Z,42.33
2022-08-21T12:45:07.262Z,42.72
2022-08-21T12:46:07.286Z,42.82
2022-08-21T12:47:07.234Z,42.52
2022-08-21T12:48:07.215Z,42.63
2022-08-21T12:49:07.203Z,42.52
2022-08-21T12:50:07.205Z,43.22
2022-08-21T12:51:07.179Z,43.32
2022-08-21T12:52:07.185Z,42.82